createdAt,value
2022-08-17T00:00:39.858Z,0
2022-08-17T00:01:56.962Z,0
2022-08-17T00:03:14.066Z,0
2022-08-17T00:04:31.170Z,0
2022-08-17T00:05:48.274Z,0
2022-08-17T00:07:05.378Z,0
2022-08-17T00:08:22.482Z,0
2022-08-17T00:09:39.585Z,0
2022-08-17T00:10:55.705Z,0
2022-08-17T00:12:12.809Z,0
2022-08-17T00:13:29.914Z,0
2022-08-17T00:14:47.017Z,0
2022-08-17T00:16:04.121Z,0
2022-08-17T00:17:21.225Z,0
2022-08-17T00:18:38.329Z,0
2022-08-17T00:19:55.433Z,0
2022-08-17T00:21:12.537Z,0
2022-08-17T00:22:29.640Z,0
2022-08-17T00:23:46.745Z,0
2022-08-17T00:25:03.848Z,0
2022-08-17T00:26:20.952Z,0
2022-08-17T00:27:37.072Z,0
2022-08-17T00:28:54.176Z,0
2022-08-17T00:30:11.280Z,0
2022-08-17T00:31:28.384Z,0
2022-08-17T00:32:45.488Z,0
2022-08-17T00:34:02.592Z,0
2022-08-17T00:35:19.696Z,0
2022-08-17T00:36:36.800Z,0
2022-08-17T00:37:53.903Z,0
2022-08-17T00:39:11.005Z,0
2022-08-17T00:40:28.109Z,0
2022-08-17T00:41:45.213Z,0
2022-08-17T00:43:02.317Z,0
2022-08-17T00:44:18.437Z,0
2022-08-17T00:45:35.541Z,0
2022-08-17T00:46:52.645Z,0
2022-08-17T00:48:09.749Z,0
2022-08-17T00:49:26.853Z,0
2022-08-17T00:50:43.956Z,0
2022-08-17T00:52:01.060Z,0
2022-08-17T00:53:18.164Z,0
2022-08-17T00:54:35.268Z,0
2022-08-17T00:55:52.372Z,0
2022-08-17T00:57:09.476Z,0
2022-08-17T00:58:26.580Z,0
2022-08-17T00:59:43.683Z,0
2022-08-17T01:00:59.803Z,0
2022-08-17T01:02:16.907Z,0
2022-08-17T01:03:34.011Z,0
2022-08-17T01:04:51.115Z,0
2022-08-17T01:06:08.219Z,0
2022-08-17T01:07:25.323Z,0
2022-08-17T01:08:42.427Z,0
2022-08-17T01:09:59.531Z,0
2022-08-17T01:11:16.635Z,0
2022-08-17T01:12:33.739Z,0
2022-08-17T01:13:50.843Z,0
2022-08-17T01:15:07.947Z,0
2022-08-17T01:16:25.051Z,0
2022-08-17T01:17:41.171Z,0
2022-08-17T01:18:58.275Z,0
2022-08-17T01:20:15.380Z,0
2022-08-17T01:21:32.484Z,0
2022-08-17T01:22:49.587Z,0
2022-08-17T01:24:06.691Z,0
2022-08-17T01:25:23.795Z,0
2022-08-17T01:26:40.900Z,0
2022-08-17T01:27:58.004Z,0
2022-08-17T01:29:15.108Z,0
2022-08-17T01:30:32.212Z,0
2022-08-17T01:31:49.317Z,0
2022-08-17T01:33:06.421Z,0
2022-08-17T01:34:22.541Z,0
2022-08-17T01:35:39.645Z,0
2022-08-17T01:36:56.749Z,0
2022-08-17T01:38:13.853Z,0
2022-08-17T01:39:30.957Z,0
2022-08-17T01:40:48.061Z,0
2022-08-17T01:42:05.165Z,0
2022-08-17T01:43:22.269Z,0
2022-08-17T01:44:39.373Z,0
2022-08-17T01:45:56.478Z,0
2022-08-17T01:47:13.582Z,0
2022-08-17T01:48:30.686Z,0
2022-08-17T01:49:47.790Z,0
2022-08-17T01:51:03.911Z,0
2022-08-17T01:52:21.015Z,0
2022-08-17T01:53:38.120Z,0
2022-08-17T01:54:55.224Z,0
2022-08-17T01:56:12.329Z,0
2022-08-17T01:57:29.433Z,0
2022-08-17T01:58:46.538Z,0
2022-08-17T02:00:03.642Z,0
2022-08-17T02:01:20.747Z,0
2022-08-17T02:02:37.851Z,0
2022-08-17T02:03:54.956Z,0
2022-08-17T02:05:12.060Z,0
2022-08-17T02:06:29.164Z,0
2022-08-17T02:07:45.284Z,0
2022-08-17T02:09:02.388Z,0
2022-08-17T02:10:19.492Z,0
2022-08-17T02:11:36.597Z,0
2022-08-17T02:12:53.701Z,0
2022-08-17T02:14:10.805Z,0
2022-08-17T02:15:27.909Z,0
2022-08-17T02:16:45.013Z,0
2022-08-17T02:18:02.117Z,0
2022-08-17T02:19:19.221Z,0
2022-08-17T02:20:36.326Z,0
2022-08-17T02:21:53.430Z,0
2022-08-17T02:23:10.535Z,0
2022-08-17T02:24:26.655Z,0
2022-08-17T02:25:43.760Z,0
2022-08-17T02:27:00.865Z,0
2022-08-17T02:28:17.969Z,0
2022-08-17T02:29:35.073Z,0
2022-08-17T02:30:52.178Z,0
2022-08-17T02:32:09.282Z,0
2022-08-17T02:33:26.386Z,0
2022-08-17T02:34:43.490Z,0
2022-08-17T02:36:00.594Z,0
2022-08-17T02:37:17.699Z,0
2022-08-17T02:38:34.803Z,0
2022-08-17T02:39:51.908Z,0
2022-08-17T02:41:08.028Z,0
2022-08-17T02:42:25.133Z,0
2022-08-17T02:43:42.237Z,0
2022-08-17T02:44:59.341Z,0
2022-08-17T02:46:16.446Z,0
2022-08-17T02:47:33.550Z,0
2022-08-17T02:48:50.655Z,0
2022-08-17T02:50:07.759Z,0
2022-08-17T02:51:24.864Z,0
2022-08-17T02:52:41.968Z,0
2022-08-17T02:53:59.073Z,0
2022-08-17T02:55:16.177Z,0
2022-08-17T02:56:33.281Z,0
2022-08-17T02:57:49.402Z,0
2022-08-17T02:59:06.506Z,0
2022-08-17T03:00:23.611Z,0
2022-08-17T03:01:40.715Z,0
2022-08-17T03:02:57.820Z,0
2022-08-17T03:04:14.924Z,0
2022-08-17T03:05:32.028Z,0
2022-08-17T03:06:49.133Z,0
2022-08-17T03:08:06.237Z,0
2022-08-17T03:09:23.341Z,0
2022-08-17T03:10:40.445Z,0
2022-08-17T03:11:57.550Z,0
2022-08-17T03:13:14.654Z,0
2022-08-17T03:14:30.775Z,0
2022-08-17T03:15:47.879Z,0
2022-08-17T03:17:04.983Z,0
2022-08-17T03:18:22.088Z,0
2022-08-17T03:19:39.192Z,0
2022-08-17T03:20:56.296Z,0
2022-08-17T03:22:12.417Z,0
2022-08-17T03:23:29.521Z,0
2022-08-17T03:24:46.626Z,0
2022-08-17T03:26:03.730Z,0
2022-08-17T03:27:20.834Z,0
2022-08-17T03:28:37.936Z,0
2022-08-17T03:29:55.041Z,0
2022-08-17T03:31:12.145Z,0
2022-08-17T03:32:29.249Z,0
2022-08-17T03:33:46.354Z,0
2022-08-17T03:35:03.459Z,0
2022-08-17T03:36:20.563Z,0
2022-08-17T03:37:37.667Z,0
2022-08-17T03:38:53.788Z,0
2022-08-17T03:40:10.892Z,0
2022-08-17T03:41:27.996Z,0
2022-08-17T03:42:45.101Z,0
2022-08-17T03:44:02.205Z,0
2022-08-17T03:45:19.309Z,0
2022-08-17T03:46:36.413Z,0
2022-08-17T03:47:53.518Z,0
2022-08-17T03:49:10.622Z,0
2022-08-17T03:50:27.726Z,0
2022-08-17T03:51:44.830Z,0
2022-08-17T03:53:01.934Z,0
2022-08-17T03:54:19.038Z,0
2022-08-17T03:55:35.159Z,0
2022-08-17T03:56:52.263Z,0
2022-08-17T03:58:09.367Z,0
2022-08-17T03:59:26.472Z,0
2022-08-17T04:00:43.576Z,0
2022-08-17T04:02:00.680Z,0
2022-08-17T04:03:17.784Z,0
2022-08-17T04:04:34.889Z,5
2022-08-17T04:05:51.993Z,5
2022-08-17T04:07:09.098Z,5
2022-08-17T04:08:26.202Z,11
2022-08-17T04:09:43.307Z,11
2022-08-17T04:11:00.411Z,16
2022-08-17T04:12:16.532Z,16
2022-08-17T04:13:33.636Z,16
2022-08-17T04:14:50.740Z,16
2022-08-17T04:16:07.845Z,16
2022-08-17T04:17:24.950Z,22
2022-08-17T04:18:42.055Z,22
2022-08-17T04:19:59.159Z,22
2022-08-17T04:21:16.264Z,22
2022-08-17T04:22:33.368Z,22
2022-08-17T04:23:50.473Z,22
2022-08-17T04:25:07.577Z,22
2022-08-17T04:26:24.681Z,22
2022-08-17T04:27:41.786Z,22
2022-08-17T04:28:57.907Z,22
2022-08-17T04:30:15.011Z,28
2022-08-17T04:31:32.116Z,28
2022-08-17T04:32:49.220Z,28
2022-08-17T04:34:06.325Z,33
2022-08-17T04:35:23.429Z,39
2022-08-17T04:36:40.533Z,45
2022-08-17T04:37:57.638Z,50
2022-08-17T04:39:14.742Z,61
2022-08-17T04:40:31.847Z,67
2022-08-17T04:41:48.952Z,78
2022-08-17T04:43:06.057Z,84
2022-08-17T04:44:23.161Z,78
2022-08-17T04:45:39.282Z,78
2022-08-17T04:46:56.386Z,90
2022-08-17T04:48:13.490Z,95
2022-08-17T04:49:30.595Z,95
2022-08-17T04:50:47.699Z,95
2022-08-17T04:52:04.804Z,101
2022-08-17T04:53:21.908Z,101
2022-08-17T04:54:39.013Z,106
2022-08-17T04:55:56.117Z,106
2022-08-17T04:57:13.222Z,112
2022-08-17T04:58:30.326Z,112
2022-08-17T04:59:47.430Z,112
2022-08-17T05:01:04.534Z,112
2022-08-17T05:02:20.655Z,112
2022-08-17T05:03:37.760Z,118
2022-08-17T05:04:54.864Z,118
2022-08-17T05:06:11.968Z,118
2022-08-17T05:07:29.073Z,118
2022-08-17T05:08:46.177Z,118
2022-08-17T05:10:03.281Z,118
2022-08-17T05:11:20.385Z,118
2022-08-17T05:12:37.489Z,118
2022-08-17T05:13:54.594Z,123
2022-08-17T05:15:11.698Z,123
2022-08-17T05:16:28.802Z,123
2022-08-17T05:17:45.906Z,129
2022-08-17T05:19:02.027Z,129
2022-08-17T05:20:19.130Z,129
2022-08-17T05:21:36.234Z,135
2022-08-17T05:22:53.338Z,135
2022-08-17T05:24:10.442Z,140
2022-08-17T05:25:27.546Z,146
2022-08-17T05:26:44.650Z,151
2022-08-17T05:28:01.754Z,157
2022-08-17T05:29:18.858Z,163
2022-08-17T05:30:35.962Z,168
2022-08-17T05:31:53.066Z,174
2022-08-17T05:33:10.170Z,180
2022-08-17T05:34:27.274Z,185
2022-08-17T05:35:43.394Z,191
2022-08-17T05:37:00.498Z,196
2022-08-17T05:38:17.602Z,208
2022-08-17T05:39:34.706Z,219
2022-08-17T05:40:51.810Z,230
2022-08-17T05:42:08.913Z,247
2022-08-17T05:43:26.017Z,258
2022-08-17T05:44:43.121Z,270
2022-08-17T05:46:00.225Z,281
2022-08-17T05:47:17.329Z,292
2022-08-17T05:48:34.433Z,309
2022-08-17T05:49:51.537Z,331
2022-08-17T05:51:08.640Z,399
2022-08-17T05:52:24.760Z,399
2022-08-17T05:53:41.864Z,399
2022-08-17T05:54:58.968Z,472
2022-08-17T05:56:16.072Z,433
2022-08-17T05:57:33.176Z,388
2022-08-17T05:58:50.280Z,405
2022-08-17T06:00:07.385Z,360
2022-08-17T06:01:24.489Z,360
2022-08-17T06:02:41.593Z,382
2022-08-17T06:03:58.697Z,393
2022-08-17T06:05:15.801Z,416
2022-08-17T06:06:32.905Z,455
2022-08-17T06:07:50.009Z,483
2022-08-17T06:09:06.130Z,556
2022-08-17T06:10:23.234Z,675
2022-08-17T06:11:40.339Z,798
2022-08-17T06:12:57.443Z,911
2022-08-17T06:14:14.547Z,1018
2022-08-17T06:15:31.651Z,1760
2022-08-17T06:16:48.755Z,1856
2022-08-17T06:18:05.859Z,1586
2022-08-17T06:19:22.963Z,1029
2022-08-17T06:20:40.067Z,798
2022-08-17T06:21:57.171Z,753
2022-08-17T06:23:14.275Z,871
2022-08-17T06:24:31.379Z,1175
2022-08-17T06:25:47.499Z,765
2022-08-17T06:27:04.603Z,804
2022-08-17T06:28:21.708Z,973
2022-08-17T06:29:38.812Z,843
2022-08-17T06:30:55.916Z,652
2022-08-17T06:32:13.021Z,585
2022-08-17T06:33:30.125Z,545
2022-08-17T06:34:47.229Z,489
2022-08-17T06:36:04.333Z,450
2022-08-17T06:37:21.437Z,433
2022-08-17T06:38:38.541Z,427
2022-08-17T06:39:55.646Z,427
2022-08-17T06:41:12.750Z,416
2022-08-17T06:42:28.870Z,405
2022-08-17T06:43:45.975Z,410
2022-08-17T06:45:03.079Z,410
2022-08-17T06:46:20.183Z,410
2022-08-17T06:47:37.287Z,410
2022-08-17T06:48:54.391Z,427
2022-08-17T06:50:11.496Z,450
2022-08-17T06:51:28.600Z,483
2022-08-17T06:52:45.704Z,556
2022-08-17T06:54:02.808Z,562
2022-08-17T06:55:19.912Z,562
2022-08-17T06:56:37.016Z,573
2022-08-17T06:57:54.120Z,646
2022-08-17T06:59:10.241Z,663
2022-08-17T07:00:27.345Z,826
2022-08-17T07:01:44.449Z,1057
2022-08-17T07:03:01.553Z,888
2022-08-17T07:04:18.657Z,900
2022-08-17T07:05:35.762Z,680
2022-08-17T07:06:52.865Z,680
2022-08-17T07:08:09.969Z,781
2022-08-17T07:09:27.073Z,781
2022-08-17T07:10:44.177Z,860
2022-08-17T07:12:01.281Z,950
2022-08-17T07:13:18.385Z,776
2022-08-17T07:14:35.489Z,703
2022-08-17T07:15:51.609Z,635
2022-08-17T07:17:08.712Z,585
2022-08-17T07:18:25.816Z,556
2022-08-17T07:19:42.920Z,540
2022-08-17T07:21:00.024Z,528
2022-08-17T07:22:17.129Z,517
2022-08-17T07:23:34.233Z,517
2022-08-17T07:24:51.337Z,517
2022-08-17T07:26:08.441Z,534
2022-08-17T07:27:25.545Z,540
2022-08-17T07:28:42.649Z,556
2022-08-17T07:29:59.753Z,579
2022-08-17T07:31:16.858Z,630
2022-08-17T07:32:32.978Z,646
2022-08-17T07:33:50.082Z,708
2022-08-17T07:35:07.186Z,652
2022-08-17T07:36:24.290Z,680
2022-08-17T07:37:41.394Z,708
2022-08-17T07:38:58.498Z,725
2022-08-17T07:40:14.618Z,736
2022-08-17T07:41:31.723Z,753
2022-08-17T07:42:48.827Z,832
2022-08-17T07:44:05.931Z,871
2022-08-17T07:45:23.035Z,911
2022-08-17T07:46:40.139Z,928
2022-08-17T07:47:57.243Z,1541
2022-08-17T07:49:14.348Z,1276
2022-08-17T07:50:31.452Z,1057
2022-08-17T07:51:48.556Z,1035
2022-08-17T07:53:05.660Z,1147
2022-08-17T07:54:22.764Z,1113
2022-08-17T07:55:39.868Z,1035
2022-08-17T07:56:55.989Z,956
2022-08-17T07:58:13.093Z,928
2022-08-17T07:59:30.197Z,928
2022-08-17T08:00:47.301Z,973
2022-08-17T08:02:04.406Z,928
2022-08-17T08:03:21.510Z,894
2022-08-17T08:04:38.615Z,894
2022-08-17T08:05:55.719Z,843
2022-08-17T08:07:12.823Z,793
2022-08-17T08:08:29.928Z,776
2022-08-17T08:09:47.033Z,770
2022-08-17T08:11:04.137Z,826
2022-08-17T08:12:21.242Z,945
2022-08-17T08:13:37.363Z,1153
2022-08-17T08:14:54.468Z,1080
2022-08-17T08:16:11.572Z,1018
2022-08-17T08:17:28.677Z,1001
2022-08-17T08:18:45.782Z,933
2022-08-17T08:20:02.886Z,832
2022-08-17T08:21:19.991Z,781
2022-08-17T08:22:37.095Z,736
2022-08-17T08:23:54.200Z,736
2022-08-17T08:25:11.305Z,725
2022-08-17T08:26:28.409Z,731
2022-08-17T08:27:45.514Z,753
2022-08-17T08:29:02.619Z,759
2022-08-17T08:30:18.739Z,748
2022-08-17T08:31:35.844Z,748
2022-08-17T08:32:52.949Z,826
2022-08-17T08:34:10.053Z,793
2022-08-17T08:35:27.158Z,821
2022-08-17T08:36:44.263Z,843
2022-08-17T08:38:01.367Z,860
2022-08-17T08:39:18.471Z,894
2022-08-17T08:40:35.576Z,916
2022-08-17T08:41:52.680Z,939
2022-08-17T08:43:09.785Z,956
2022-08-17T08:44:26.889Z,939
2022-08-17T08:45:43.993Z,916
2022-08-17T08:47:00.113Z,900
2022-08-17T08:48:17.217Z,894
2022-08-17T08:49:34.322Z,860
2022-08-17T08:50:51.426Z,826
2022-08-17T08:52:08.528Z,793
2022-08-17T08:53:25.632Z,776
2022-08-17T08:54:42.737Z,753
2022-08-17T08:55:59.841Z,725
2022-08-17T08:57:16.946Z,697
2022-08-17T08:58:34.050Z,675
2022-08-17T08:59:51.154Z,658
2022-08-17T09:01:08.259Z,635
2022-08-17T09:02:25.363Z,601
2022-08-17T09:03:41.484Z,556
2022-08-17T09:04:58.588Z,523
2022-08-17T09:06:15.692Z,511
2022-08-17T09:07:32.794Z,511
2022-08-17T09:08:49.899Z,523
2022-08-17T09:10:07.003Z,534
2022-08-17T09:11:24.107Z,540
2022-08-17T09:12:41.212Z,551
2022-08-17T09:13:58.316Z,573
2022-08-17T09:15:15.421Z,590
2022-08-17T09:16:32.525Z,585
2022-08-17T09:17:49.629Z,601
2022-08-17T09:19:06.734Z,613
2022-08-17T09:20:22.855Z,635
2022-08-17T09:21:39.959Z,641
2022-08-17T09:22:57.064Z,624
2022-08-17T09:24:14.168Z,601
2022-08-17T09:25:31.272Z,579
2022-08-17T09:26:48.377Z,556
2022-08-17T09:28:05.481Z,534
2022-08-17T09:29:22.586Z,511
2022-08-17T09:30:39.691Z,489
2022-08-17T09:31:56.795Z,466
2022-08-17T09:33:13.900Z,450
2022-08-17T09:34:31.005Z,438
2022-08-17T09:35:48.109Z,427
2022-08-17T09:37:04.230Z,427
2022-08-17T09:38:21.335Z,427
2022-08-17T09:39:38.439Z,427
2022-08-17T09:40:55.544Z,427
2022-08-17T09:42:12.649Z,433
2022-08-17T09:43:29.753Z,450
2022-08-17T09:44:46.858Z,472
2022-08-17T09:46:03.963Z,483
2022-08-17T09:47:21.067Z,478
2022-08-17T09:48:38.171Z,455
2022-08-17T09:49:55.277Z,433
2022-08-17T09:51:12.381Z,410
2022-08-17T09:52:29.485Z,382
2022-08-17T09:53:45.606Z,348
2022-08-17T09:55:02.710Z,315
2022-08-17T09:56:19.815Z,286
2022-08-17T09:57:36.919Z,264
2022-08-17T09:58:54.023Z,247
2022-08-17T10:00:11.128Z,230
2022-08-17T10:01:28.232Z,213
2022-08-17T10:02:45.336Z,202
2022-08-17T10:04:02.440Z,191
2022-08-17T10:05:19.544Z,196
2022-08-17T10:06:36.649Z,213
2022-08-17T10:07:53.753Z,236
2022-08-17T10:09:10.857Z,253
2022-08-17T10:10:26.977Z,281
2022-08-17T10:11:44.081Z,320
2022-08-17T10:13:01.185Z,360
2022-08-17T10:14:18.289Z,421
2022-08-17T10:15:35.394Z,483
2022-08-17T10:16:52.498Z,534
2022-08-17T10:18:09.602Z,568
2022-08-17T10:19:26.706Z,585
2022-08-17T10:20:43.810Z,585
2022-08-17T10:22:00.914Z,573
2022-08-17T10:23:18.018Z,573
2022-08-17T10:24:35.122Z,585
2022-08-17T10:25:52.227Z,613
2022-08-17T10:27:08.347Z,646
2022-08-17T10:28:25.451Z,703
2022-08-17T10:29:42.555Z,770
2022-08-17T10:30:59.659Z,759
2022-08-17T10:32:16.763Z,787
2022-08-17T10:33:33.867Z,810
2022-08-17T10:34:50.972Z,804
2022-08-17T10:36:08.076Z,793
2022-08-17T10:37:25.181Z,787
2022-08-17T10:38:42.285Z,770
2022-08-17T10:39:59.390Z,753
2022-08-17T10:41:16.494Z,748
2022-08-17T10:42:33.599Z,748
2022-08-17T10:43:49.719Z,753
2022-08-17T10:45:06.824Z,759
2022-08-17T10:46:23.926Z,765
2022-08-17T10:47:41.030Z,781
2022-08-17T10:48:58.135Z,798
2022-08-17T10:50:15.240Z,815
2022-08-17T10:51:32.344Z,832
2022-08-17T10:52:49.449Z,849
2022-08-17T10:54:06.553Z,871
2022-08-17T10:55:23.658Z,888
2022-08-17T10:56:40.763Z,911
2022-08-17T10:57:57.867Z,916
2022-08-17T10:59:14.972Z,928
2022-08-17T11:00:31.093Z,916
2022-08-17T11:01:48.198Z,905
2022-08-17T11:03:05.302Z,877
2022-08-17T11:04:22.406Z,832
2022-08-17T11:05:39.510Z,759
2022-08-17T11:06:56.614Z,686
2022-08-17T11:08:13.718Z,618
2022-08-17T11:09:30.822Z,551
2022-08-17T11:10:47.927Z,483
2022-08-17T11:12:05.031Z,450
2022-08-17T11:13:22.135Z,433
2022-08-17T11:14:39.239Z,416
2022-08-17T11:15:56.343Z,393
2022-08-17T11:17:12.463Z,376
2022-08-17T11:18:29.567Z,376
2022-08-17T11:19:46.671Z,399
2022-08-17T11:21:03.776Z,433
2022-08-17T11:22:20.881Z,444
2022-08-17T11:23:37.983Z,438
2022-08-17T11:24:55.088Z,433
2022-08-17T11:26:12.192Z,433
2022-08-17T11:27:29.297Z,427
2022-08-17T11:28:46.401Z,410
2022-08-17T11:30:03.506Z,399
2022-08-17T11:31:20.610Z,399
2022-08-17T11:32:37.715Z,410
2022-08-17T11:33:53.836Z,399
2022-08-17T11:35:10.941Z,393
2022-08-17T11:36:28.045Z,410
2022-08-17T11:37:45.150Z,438
2022-08-17T11:39:02.255Z,472
2022-08-17T11:40:19.359Z,495
2022-08-17T11:41:36.464Z,506
2022-08-17T11:42:53.569Z,506
2022-08-17T11:44:10.673Z,500
2022-08-17T11:45:27.778Z,495
2022-08-17T11:46:44.882Z,489
2022-08-17T11:48:01.987Z,489
2022-08-17T11:49:19.092Z,489
2022-08-17T11:50:35.212Z,483
2022-08-17T11:51:52.317Z,478
2022-08-17T11:53:09.421Z,466
2022-08-17T11:54:26.525Z,466
2022-08-17T11:55:43.630Z,466
2022-08-17T11:57:00.735Z,483
2022-08-17T11:58:16.855Z,511
2022-08-17T11:59:33.960Z,528
2022-08-17T12:00:51.064Z,562
2022-08-17T12:02:08.168Z,585
2022-08-17T12:03:25.272Z,613
2022-08-17T12:04:42.376Z,630
2022-08-17T12:05:59.481Z,646
2022-08-17T12:07:16.585Z,663
2022-08-17T12:08:33.689Z,675
2022-08-17T12:09:50.793Z,680
2022-08-17T12:11:07.898Z,686
2022-08-17T12:12:25.002Z,691
2022-08-17T12:13:42.106Z,708
2022-08-17T12:14:58.227Z,708
2022-08-17T12:16:15.331Z,708
2022-08-17T12:17:32.435Z,708
2022-08-17T12:18:49.540Z,697
2022-08-17T12:20:06.644Z,686
2022-08-17T12:21:23.748Z,675
2022-08-17T12:22:40.853Z,680
2022-08-17T12:23:57.957Z,680
2022-08-17T12:25:15.062Z,691
2022-08-17T12:26:32.166Z,742
2022-08-17T12:27:49.270Z,742
2022-08-17T12:29:06.375Z,877
2022-08-17T12:30:23.479Z,911
2022-08-17T12:31:39.599Z,860
2022-08-17T12:32:56.704Z,888
2022-08-17T12:34:13.808Z,911
2022-08-17T12:35:30.912Z,888
2022-08-17T12:36:48.017Z,860
2022-08-17T12:38:05.121Z,838
2022-08-17T12:39:22.226Z,815
2022-08-17T12:40:39.331Z,781
2022-08-17T12:41:56.435Z,759
2022-08-17T12:43:13.540Z,731
2022-08-17T12:44:30.644Z,708
2022-08-17T12:45:47.749Z,669
2022-08-17T12:47:04.853Z,635
2022-08-17T12:48:20.974Z,652
2022-08-17T12:49:38.078Z,624
2022-08-17T12:50:55.183Z,635
2022-08-17T12:52:12.288Z,601
2022-08-17T12:53:29.392Z,596
2022-08-17T12:54:46.497Z,579
2022-08-17T12:56:03.601Z,568
2022-08-17T12:57:20.706Z,545
2022-08-17T12:58:37.810Z,551
2022-08-17T12:59:54.915Z,551
2022-08-17T13:01:12.019Z,556
2022-08-17T13:02:29.125Z,517
2022-08-17T13:03:46.229Z,556
2022-08-17T13:05:02.350Z,573
2022-08-17T13:06:19.454Z,596
2022-08-17T13:07:36.556Z,568
2022-08-17T13:08:53.661Z,545
2022-08-17T13:10:10.765Z,556
2022-08-17T13:11:27.869Z,601
2022-08-17T13:12:44.973Z,646
2022-08-17T13:14:02.078Z,663
2022-08-17T13:15:19.182Z,663
2022-08-17T13:16:36.286Z,686
2022-08-17T13:17:53.390Z,697
2022-08-17T13:19:10.495Z,703
2022-08-17T13:20:27.599Z,714
2022-08-17T13:21:43.719Z,714
2022-08-17T13:23:00.823Z,703
2022-08-17T13:24:17.928Z,714
2022-08-17T13:25:35.033Z,714
2022-08-17T13:26:52.137Z,720
2022-08-17T13:28:09.242Z,686
2022-08-17T13:29:26.347Z,731
2022-08-17T13:30:43.451Z,663
2022-08-17T13:32:00.556Z,748
2022-08-17T13:33:17.661Z,720
2022-08-17T13:34:34.766Z,675
2022-08-17T13:35:51.870Z,630
2022-08-17T13:37:08.974Z,596
2022-08-17T13:38:25.095Z,579
2022-08-17T13:39:42.199Z,568
2022-08-17T13:40:59.304Z,568
2022-08-17T13:42:16.408Z,596
2022-08-17T13:43:33.511Z,618
2022-08-17T13:44:50.615Z,613
2022-08-17T13:46:07.720Z,635
2022-08-17T13:47:24.824Z,646
2022-08-17T13:48:41.929Z,641
2022-08-17T13:49:59.033Z,618
2022-08-17T13:51:16.137Z,601
2022-08-17T13:52:33.241Z,613
2022-08-17T13:53:50.345Z,630
2022-08-17T13:55:06.465Z,646
2022-08-17T13:56:23.569Z,579
2022-08-17T13:57:40.673Z,630
2022-08-17T13:58:57.777Z,680
2022-08-17T14:00:14.881Z,691
2022-08-17T14:01:31.985Z,703
2022-08-17T14:02:49.089Z,714
2022-08-17T14:04:06.192Z,714
2022-08-17T14:05:23.297Z,708
2022-08-17T14:06:40.401Z,686
2022-08-17T14:07:57.506Z,596
2022-08-17T14:09:14.610Z,579
2022-08-17T14:10:31.714Z,568
2022-08-17T14:11:47.834Z,568
2022-08-17T14:13:04.938Z,568
2022-08-17T14:14:22.042Z,579
2022-08-17T14:15:39.146Z,585
2022-08-17T14:16:56.250Z,579
2022-08-17T14:18:13.354Z,579
2022-08-17T14:19:30.458Z,568
2022-08-17T14:20:47.563Z,585
2022-08-17T14:22:04.668Z,523
2022-08-17T14:23:21.772Z,489
2022-08-17T14:24:38.876Z,483
2022-08-17T14:25:55.980Z,495
2022-08-17T14:27:13.084Z,517
2022-08-17T14:28:29.205Z,528
2022-08-17T14:29:46.309Z,528
2022-08-17T14:31:03.413Z,534
2022-08-17T14:32:20.518Z,528
2022-08-17T14:33:37.622Z,517
2022-08-17T14:34:54.727Z,500
2022-08-17T14:36:11.830Z,500
2022-08-17T14:37:28.934Z,534
2022-08-17T14:38:46.038Z,573
2022-08-17T14:40:03.142Z,596
2022-08-17T14:41:20.246Z,596
2022-08-17T14:42:37.350Z,562
2022-08-17T14:43:54.453Z,511
2022-08-17T14:45:10.573Z,450
2022-08-17T14:46:27.677Z,393
2022-08-17T14:47:44.781Z,354
2022-08-17T14:49:01.885Z,320
2022-08-17T14:50:18.989Z,298
2022-08-17T14:51:36.094Z,298
2022-08-17T14:52:53.198Z,331
2022-08-17T14:54:10.302Z,388
2022-08-17T14:55:27.406Z,438
2022-08-17T14:56:44.510Z,438
2022-08-17T14:58:01.614Z,421
2022-08-17T14:59:18.718Z,399
2022-08-17T15:00:35.822Z,450
2022-08-17T15:01:51.942Z,483
2022-08-17T15:03:09.046Z,562
2022-08-17T15:04:26.150Z,618
2022-08-17T15:05:43.255Z,669
2022-08-17T15:07:00.359Z,669
2022-08-17T15:08:17.462Z,720
2022-08-17T15:09:34.568Z,720
2022-08-17T15:10:51.672Z,686
2022-08-17T15:12:08.775Z,641
2022-08-17T15:13:25.879Z,607
2022-08-17T15:14:42.983Z,596
2022-08-17T15:16:00.087Z,596
2022-08-17T15:17:17.191Z,607
2022-08-17T15:18:33.311Z,613
2022-08-17T15:19:50.415Z,585
2022-08-17T15:21:07.519Z,517
2022-08-17T15:22:24.623Z,455
2022-08-17T15:23:41.727Z,382
2022-08-17T15:24:58.831Z,320
2022-08-17T15:26:15.935Z,286
2022-08-17T15:27:33.039Z,264
2022-08-17T15:28:50.143Z,270
2022-08-17T15:30:07.247Z,270
2022-08-17T15:31:24.351Z,286
2022-08-17T15:32:41.455Z,320
2022-08-17T15:33:58.559Z,360
2022-08-17T15:35:14.677Z,410
2022-08-17T15:36:31.781Z,461
2022-08-17T15:37:48.884Z,523
2022-08-17T15:39:05.989Z,540
2022-08-17T15:40:23.091Z,540
2022-08-17T15:41:40.194Z,500
2022-08-17T15:42:57.298Z,500
2022-08-17T15:44:14.402Z,444
2022-08-17T15:45:31.506Z,461
2022-08-17T15:46:48.610Z,500
2022-08-17T15:48:05.714Z,523
2022-08-17T15:49:22.819Z,517
2022-08-17T15:50:39.923Z,506
2022-08-17T15:51:56.044Z,523
2022-08-17T15:53:13.148Z,523
2022-08-17T15:54:30.252Z,489
2022-08-17T15:55:47.356Z,461
2022-08-17T15:57:04.460Z,405
2022-08-17T15:58:21.564Z,348
2022-08-17T15:59:38.669Z,326
2022-08-17T16:00:55.773Z,309
2022-08-17T16:02:12.878Z,315
2022-08-17T16:03:29.982Z,298
2022-08-17T16:04:47.086Z,303
2022-08-17T16:06:04.191Z,331
2022-08-17T16:07:21.295Z,382
2022-08-17T16:08:37.416Z,433
2022-08-17T16:09:54.520Z,478
2022-08-17T16:11:11.625Z,523
2022-08-17T16:12:28.729Z,545
2022-08-17T16:13:45.834Z,556
2022-08-17T16:15:02.938Z,545
2022-08-17T16:16:19.058Z,545
2022-08-17T16:17:36.162Z,551
2022-08-17T16:18:53.268Z,540
2022-08-17T16:20:10.372Z,534
2022-08-17T16:21:27.476Z,506
2022-08-17T16:22:44.581Z,466
2022-08-17T16:24:01.686Z,416
2022-08-17T16:25:18.790Z,382
2022-08-17T16:26:35.894Z,354
2022-08-17T16:27:52.999Z,326
2022-08-17T16:29:10.103Z,315
2022-08-17T16:30:27.207Z,286
2022-08-17T16:31:44.312Z,275
2022-08-17T16:33:00.433Z,275
2022-08-17T16:34:17.537Z,270
2022-08-17T16:35:34.641Z,270
2022-08-17T16:36:51.745Z,264
2022-08-17T16:38:08.847Z,258
2022-08-17T16:39:25.951Z,253
2022-08-17T16:40:43.055Z,247
2022-08-17T16:42:00.159Z,241
2022-08-17T16:43:17.263Z,241
2022-08-17T16:44:34.367Z,236
2022-08-17T16:45:51.472Z,230
2022-08-17T16:47:08.576Z,230
2022-08-17T16:48:25.680Z,225
2022-08-17T16:49:41.800Z,219
2022-08-17T16:50:58.904Z,213
2022-08-17T16:52:16.008Z,208
2022-08-17T16:53:33.113Z,208
2022-08-17T16:54:50.217Z,213
2022-08-17T16:56:07.321Z,213
2022-08-17T16:57:24.425Z,213
2022-08-17T16:58:41.529Z,213
2022-08-17T16:59:58.633Z,213
2022-08-17T17:01:15.737Z,208
2022-08-17T17:02:32.841Z,208
2022-08-17T17:03:49.945Z,208
2022-08-17T17:05:07.049Z,208
2022-08-17T17:06:23.169Z,202
2022-08-17T17:07:40.273Z,202
2022-08-17T17:08:57.378Z,202
2022-08-17T17:10:14.482Z,202
2022-08-17T17:11:31.586Z,202
2022-08-17T17:12:48.690Z,202
2022-08-17T17:14:05.794Z,196
2022-08-17T17:15:22.898Z,196
2022-08-17T17:16:40.002Z,196
2022-08-17T17:17:57.106Z,191
2022-08-17T17:19:14.210Z,191
2022-08-17T17:20:31.314Z,191
2022-08-17T17:21:48.418Z,191
2022-08-17T17:23:04.539Z,185
2022-08-17T17:24:21.643Z,185
2022-08-17T17:25:38.747Z,185
2022-08-17T17:26:55.851Z,185
2022-08-17T17:28:12.955Z,185
2022-08-17T17:29:30.059Z,185
2022-08-17T17:30:47.164Z,180
2022-08-17T17:32:04.268Z,180
2022-08-17T17:33:21.372Z,174
2022-08-17T17:34:38.477Z,168
2022-08-17T17:35:55.582Z,163
2022-08-17T17:37:12.686Z,163
2022-08-17T17:38:29.790Z,151
2022-08-17T17:39:45.910Z,151
2022-08-17T17:41:03.014Z,146
2022-08-17T17:42:20.119Z,140
2022-08-17T17:43:37.223Z,135
2022-08-17T17:44:54.327Z,135
2022-08-17T17:46:11.431Z,129
2022-08-17T17:47:28.536Z,123
2022-08-17T17:48:45.640Z,123
2022-08-17T17:50:02.744Z,123
2022-08-17T17:51:19.848Z,118
2022-08-17T17:52:36.952Z,118
2022-08-17T17:53:54.057Z,112
2022-08-17T17:55:11.161Z,106
2022-08-17T17:56:27.281Z,106
2022-08-17T17:57:44.385Z,101